Main page
METAR-TAF:

METAR-TAF

Airports :

Albuquerque International Sunport

Albuquerque, New Mexico, United States

latitude: 35-02-30N, longitude: 106-36-53W, elevation: 5350 ft

Current weather observation

The report was made 29 minutes ago, at 16:52 UTC
Wind 3 mph from variable directions
Temperature 75°F
Humidity 44%
Pressure 30.11 in. Hg
Visibility: 10 miles
Few clouds at a height of 12000 ft

METAR: KABQ 151652Z VRB03KT 10SM FEW120 24/11 A3011 RMK AO2 SLP121 T02390111

Time: 11:21 (17:21 UTC)

Forecast

The report was made 6 hours and 1 minutes ago, at 11:20 UTC
Forecast valid from 15 at 12 UTC to 16 at 12 UTC
Wind 9 mph from the North
Visibility: 6 miles
Clear sky
From 15 at 1900 UTC
Wind 8 mph from the Northwest
Visibility: 6 miles
Few clouds at a height of 12000 ft
From 16 at 0100 UTC
Wind 7 mph from the South/Southeast
Visibility: 6 miles
Scattered clouds at a height of 15000 ft

TAF: KABQ 151120Z 1512/1612 36008KT P6SM SKC FM151900 31007KT P6SM FEW120 FM160100 15006KT P6SM SCT150

Weather observations and forecasts of more than 4000 airports (METAR and TAF reports).

The available stations are represented by yellow and red dots on the map.

Hover mouse over dot to see the name of the station.

Then click to see weather observations and forecasts.

To change the map : click on the green buttons with a black cross to zoom in, on the green button with a dash to zoom out, or on the green arrows for adjacent maps.


METAR-TAF: